Time;durP1;ratioP1;P1;durP2;ratioP2;P2;SDS_P1;SDS_P2;PMS_P1;PMS_P2;Temp;Humidity;BMP_temperature;BMP_pressure;BME280_temperature;BME280_humidity;BME280_pressure;Samples;Min_cycle;Max_cycle;Signal;HPM_P1;HPM_P2
2023/08/11 00:02:24;;;;;;;47.80;43.97;;;13.40;99.90;;;;;;4937901;28;20175;-77
2023/08/11 00:04:52;;;;;;;43.80;40.13;;;13.40;99.90;;;;;;4960692;28;20042;-77
2023/08/11 00:07:20;;;;;;;49.90;45.45;;;13.40;99.90;;;;;;4997368;28;20055;-77
2023/08/11 00:09:46;;;;;;;45.20;41.40;;;13.40;99.90;;;;;;4944545;29;20397;-77
2023/08/11 00:12:11;;;;;;;47.45;43.80;;;13.40;99.90;;;;;;4952281;28;20039;-77
2023/08/11 00:14:37;;;;;;;61.90;56.30;;;13.40;99.90;;;;;;4964270;28;20043;-77
2023/08/11 00:17:04;;;;;;;61.35;55.97;;;13.40;99.90;;;;;;4940468;29;20343;-77
2023/08/11 00:19:30;;;;;;;47.38;43.58;;;13.40;99.90;;;;;;4939031;29;20126;-77
2023/08/11 00:21:56;;;;;;;49.25;45.05;;;13.40;99.90;;;;;;4966657;28;20046;-77
2023/08/11 00:24:23;;;;;;;51.65;47.05;;;13.40;99.90;;;;;;4940876;29;20043;-77
2023/08/11 00:26:49;;;;;;;51.42;47.35;;;13.40;99.90;;;;;;4941053;28;20039;-77
2023/08/11 00:29:17;;;;;;;55.53;50.88;;;13.40;99.90;;;;;;4961166;28;20114;-77
2023/08/11 00:31:46;;;;;;;61.45;56.38;;;13.40;99.90;;;;;;4946945;29;20075;-77
2023/08/11 00:34:12;;;;;;;67.53;61.83;;;13.40;99.90;;;;;;4945281;28;20047;-77
2023/08/11 00:36:38;;;;;;;65.57;60.15;;;13.40;99.90;;;;;;4941184;29;20437;-77
2023/08/11 00:39:13;;;;;;;72.57;66.43;;;13.40;99.90;;;;;;4942829;29;20069;-77
2023/08/11 00:41:38;;;;;;;58.60;54.05;;;13.40;99.90;;;;;;4952509;29;20043;-77
2023/08/11 00:44:04;;;;;;;86.53;78.75;;;13.40;99.90;;;;;;4942499;29;20047;-77
2023/08/11 00:46:30;;;;;;;105.90;90.10;;;13.40;99.90;;;;;;4950235;29;20125;-77
2023/08/11 00:48:57;;;;;;;75.65;69.22;;;13.30;99.90;;;;;;4957794;28;20058;-77
2023/08/11 00:51:24;;;;;;;83.00;75.53;;;13.30;99.90;;;;;;4940639;29;20046;-77
2023/08/11 00:53:51;;;;;;;80.00;73.28;;;13.30;99.90;;;;;;4959682;28;20091;-77
2023/08/11 00:56:24;;;;;;;72.72;66.75;;;13.20;99.90;;;;;;4942817;29;20039;-77
2023/08/11 00:58:51;;;;;;;73.47;67.40;;;13.30;99.90;;;;;;4936066;29;20103;-77
2023/08/11 01:01:17;;;;;;;91.30;83.03;;;13.20;99.90;;;;;;4958073;29;20062;-77
2023/08/11 01:03:45;;;;;;;75.55;69.43;;;13.30;99.90;;;;;;4975109;28;20130;-77
2023/08/11 01:06:25;;;;;;;108.38;97.95;;;13.30;99.90;;;;;;4978610;28;20070;-77
2023/08/11 01:09:16;;;;;;;78.28;71.57;;;13.30;99.90;;;;;;4972646;28;20043;-77
2023/08/11 01:12:08;;;;;;;100.50;90.80;;;13.20;99.90;;;;;;4958227;29;20051;-77
2023/08/11 01:15:03;;;;;;;81.93;75.07;;;13.20;99.90;;;;;;4952998;28;20046;-77
2023/08/11 01:17:30;;;;;;;81.10;74.22;;;13.20;99.90;;;;;;4946340;28;20086;-77
2023/08/11 01:19:57;;;;;;;104.50;94.30;;;13.20;99.90;;;;;;4959748;28;20465;-77
2023/08/11 01:22:28;;;;;;;86.95;79.25;;;13.20;99.90;;;;;;4943010;29;20073;-77
2023/08/11 01:24:57;;;;;;;84.88;77.68;;;13.20;99.90;;;;;;4951505;28;20091;-77
2023/08/11 01:27:23;;;;;;;82.30;75.53;;;13.20;99.90;;;;;;4962170;28;20035;-77
2023/08/11 01:29:49;;;;;;;101.35;91.95;;;13.30;99.90;;;;;;4962030;28;20763;-77
2023/08/11 01:32:15;;;;;;;79.57;73.00;;;13.30;99.90;;;;;;4936063;29;20069;-77
2023/08/11 01:34:41;;;;;;;90.50;83.00;;;13.40;99.90;;;;;;4943867;29;20391;-77
2023/08/11 01:37:07;;;;;;;75.05;68.68;;;13.30;99.90;;;;;;4942524;29;20043;-77
2023/08/11 01:39:33;;;;;;;71.80;66.05;;;13.30;99.90;;;;;;4956026;28;20101;-77
2023/08/11 01:41:59;;;;;;;106.95;95.93;;;13.40;99.90;;;;;;4955026;28;20035;-77
2023/08/11 01:44:25;;;;;;;123.22;94.32;;;13.30;99.90;;;;;;4947751;28;20081;-77
2023/08/11 01:46:54;;;;;;;110.00;94.55;;;13.30;99.90;;;;;;4941659;29;20042;-77
2023/08/11 01:49:24;;;;;;;77.63;70.97;;;13.30;99.90;;;;;;4937673;29;20406;-77
2023/08/11 01:51:50;;;;;;;78.63;71.22;;;13.30;99.90;;;;;;4938351;28;20081;-77
2023/08/11 01:54:16;;;;;;;103.00;92.75;;;13.30;99.90;;;;;;4930350;29;20035;-77
2023/08/11 01:56:42;;;;;;;92.20;83.97;;;13.20;99.90;;;;;;4938302;29;20474;-76
2023/08/11 01:59:13;;;;;;;67.90;62.42;;;13.20;99.90;;;;;;4939284;29;20113;-77
2023/08/11 02:01:40;;;;;;;89.03;80.13;;;13.20;99.90;;;;;;4938853;29;20119;-77
2023/08/11 02:04:08;;;;;;;82.75;75.53;;;13.20;99.90;;;;;;4939720;28;20078;-77
2023/08/11 02:06:36;;;;;;;67.30;61.67;;;13.20;99.90;;;;;;4945662;28;20054;-77
2023/08/11 02:09:04;;;;;;;97.97;88.00;;;13.20;99.90;;;;;;4958124;28;20055;-77
2023/08/11 02:11:30;;;;;;;65.85;60.25;;;13.20;99.90;;;;;;4955795;29;20043;-77
2023/08/11 02:13:56;;;;;;;70.10;64.25;;;13.20;99.90;;;;;;4940443;28;20521;-77
2023/08/11 02:16:22;;;;;;;73.50;67.57;;;13.20;99.90;;;;;;4941104;28;20079;-76
2023/08/11 02:18:47;;;;;;;61.30;56.40;;;13.20;99.90;;;;;;4940910;29;20494;-77
2023/08/11 02:21:13;;;;;;;87.60;79.13;;;13.20;99.90;;;;;;4935534;29;20122;-77
2023/08/11 02:23:39;;;;;;;92.95;84.03;;;13.20;99.90;;;;;;4949770;28;20046;-77
2023/08/11 02:26:05;;;;;;;79.70;71.47;;;13.10;99.90;;;;;;4957631;28;20133;-76
2023/08/11 02:28:31;;;;;;;69.10;63.13;;;13.10;99.90;;;;;;4973350;28;20047;-77
2023/08/11 02:30:58;;;;;;;63.25;57.90;;;13.10;99.90;;;;;;4933744;29;20081;-77
2023/08/11 02:33:25;;;;;;;83.00;75.40;;;13.10;99.90;;;;;;4941630;29;20043;-77
2023/08/11 02:35:50;;;;;;;70.65;64.43;;;13.10;99.90;;;;;;4941148;29;20043;-77
2023/08/11 02:38:16;;;;;;;91.85;82.63;;;13.20;99.90;;;;;;4968944;28;20045;-76
2023/08/11 02:40:42;;;;;;;59.63;54.80;;;13.10;99.90;;;;;;4938257;29;20050;-77
2023/08/11 02:43:08;;;;;;;86.07;78.32;;;13.10;99.90;;;;;;4941223;29;20574;-77
2023/08/11 02:45:35;;;;;;;83.10;74.57;;;13.10;99.90;;;;;;4957745;29;20041;-77
2023/08/11 02:48:01;;;;;;;63.33;58.13;;;13.10;99.90;;;;;;4941813;29;20439;-77
2023/08/11 02:50:27;;;;;;;78.10;70.40;;;13.10;99.90;;;;;;4942388;29;20410;-76
2023/08/11 02:52:53;;;;;;;63.80;58.45;;;13.10;99.90;;;;;;4941375;29;20045;-77
2023/08/11 02:55:19;;;;;;;65.80;60.05;;;13.10;99.90;;;;;;4948462;29;20075;-77
2023/08/11 02:57:45;;;;;;;59.30;54.03;;;13.10;99.90;;;;;;4936010;29;20039;-76
2023/08/11 03:00:13;;;;;;;69.68;62.85;;;13.10;99.90;;;;;;4935287;29;20046;-77
2023/08/11 03:02:42;;;;;;;62.33;56.88;;;13.10;99.90;;;;;;4952467;29;20056;-77
2023/08/11 03:05:09;;;;;;;50.90;46.78;;;13.00;99.90;;;;;;4943783;28;20085;-76
2023/08/11 03:07:36;;;;;;;55.63;50.72;;;13.10;99.90;;;;;;4936559;29;20043;-77
2023/08/11 03:10:03;;;;;;;63.08;57.47;;;13.00;99.90;;;;;;4935608;29;20047;-76
2023/08/11 03:12:28;;;;;;;63.63;58.33;;;13.00;99.90;;;;;;4934331;29;20047;-77
2023/08/11 03:14:55;;;;;;;80.97;73.25;;;13.00;99.90;;;;;;4936404;29;20453;-78
2023/08/11 03:17:21;;;;;;;58.80;53.67;;;13.00;99.90;;;;;;4955767;28;20034;-78
2023/08/11 03:19:47;;;;;;;58.97;54.00;;;13.00;99.90;;;;;;4954578;28;20043;-77
2023/08/11 03:22:13;;;;;;;59.45;54.25;;;13.00;99.90;;;;;;4932453;29;20525;-77
2023/08/11 03:24:39;;;;;;;64.75;59.17;;;13.00;99.90;;;;;;4967786;28;20043;-76
2023/08/11 03:27:06;;;;;;;66.93;60.67;;;12.90;99.90;;;;;;4936233;29;20057;-76
2023/08/11 03:29:32;;;;;;;61.72;56.30;;;13.00;99.90;;;;;;4934107;29;20141;-77
2023/08/11 03:31:57;;;;;;;73.18;66.20;;;13.00;99.90;;;;;;4933470;29;20467;-77
2023/08/11 03:34:25;;;;;;;58.88;54.08;;;13.00;99.90;;;;;;4948703;28;20035;-77
2023/08/11 03:36:51;;;;;;;60.00;54.72;;;13.00;99.90;;;;;;4955331;28;20046;-77
2023/08/11 03:39:17;;;;;;;75.57;68.50;;;12.90;99.90;;;;;;4938120;28;20047;-77
2023/08/11 03:41:43;;;;;;;66.20;60.30;;;13.00;99.90;;;;;;4939325;29;20126;-76
2023/08/11 03:44:08;;;;;;;78.93;71.40;;;13.00;99.90;;;;;;4942173;28;20130;-76
2023/08/11 03:46:34;;;;;;;68.13;62.15;;;12.90;99.90;;;;;;4959081;28;20109;-76
2023/08/11 03:49:00;;;;;;;76.25;69.28;;;12.90;99.90;;;;;;4975111;28;20523;-77
2023/08/11 03:51:26;;;;;;;96.78;85.50;;;12.90;99.90;;;;;;4944197;29;20130;-77
2023/08/11 03:53:54;;;;;;;68.90;62.45;;;12.90;99.90;;;;;;4956019;29;20043;-77
2023/08/11 03:56:22;;;;;;;66.07;60.50;;;12.90;99.90;;;;;;4938436;29;20039;-76
2023/08/11 03:58:48;;;;;;;69.57;63.00;;;12.90;99.90;;;;;;4947819;29;20098;-77
2023/08/11 04:01:14;;;;;;;60.10;54.75;;;13.00;99.90;;;;;;4958736;28;20043;-77
2023/08/11 04:03:40;;;;;;;59.63;54.50;;;13.00;99.90;;;;;;4970251;28;20043;-78
2023/08/11 04:06:05;;;;;;;100.65;89.55;;;13.00;99.90;;;;;;4974901;28;20046;-76
2023/08/11 04:08:31;;;;;;;59.85;54.63;;;12.90;99.90;;;;;;4970436;28;20324;-76
2023/08/11 04:10:57;;;;;;;55.72;50.92;;;12.90;99.90;;;;;;4961846;28;20097;-76
2023/08/11 04:13:23;;;;;;;75.82;68.72;;;13.00;99.90;;;;;;4960033;28;20114;-77
2023/08/11 04:15:49;;;;;;;59.10;53.53;;;12.90;99.90;;;;;;4974570;28;20043;-77
2023/08/11 04:18:14;;;;;;;53.90;49.42;;;12.90;99.90;;;;;;4958502;28;20042;-77
2023/08/11 04:20:40;;;;;;;51.83;47.28;;;13.00;99.90;;;;;;4950363;29;20031;-77
2023/08/11 04:23:06;;;;;;;56.28;51.42;;;13.00;99.90;;;;;;4940442;28;20035;-76
2023/08/11 04:25:32;;;;;;;63.75;57.47;;;13.00;99.90;;;;;;4958336;28;20038;-78
2023/08/11 04:28:00;;;;;;;57.63;52.58;;;13.00;99.90;;;;;;4958455;28;20069;-77
2023/08/11 04:30:26;;;;;;;72.35;65.03;;;13.00;99.90;;;;;;4958093;28;20099;-77
2023/08/11 04:32:52;;;;;;;52.33;48.05;;;13.00;99.90;;;;;;4939637;29;20055;-76
2023/08/11 04:35:18;;;;;;;63.33;57.55;;;13.10;99.90;;;;;;4941142;28;20089;-77
2023/08/11 04:37:44;;;;;;;55.83;50.67;;;13.10;99.90;;;;;;4947347;28;20069;-77
2023/08/11 04:40:13;;;;;;;47.97;44.03;;;13.10;99.90;;;;;;4945679;28;20042;-77
2023/08/11 04:42:43;;;;;;;46.10;42.17;;;13.20;99.90;;;;;;4953225;28;20041;-77
2023/08/11 04:45:09;;;;;;;51.38;46.85;;;13.20;99.90;;;;;;4941495;28;20137;-77
2023/08/11 04:47:35;;;;;;;41.88;38.45;;;13.20;99.90;;;;;;4956264;28;20054;-77
2023/08/11 04:50:01;;;;;;;46.63;42.72;;;13.30;99.90;;;;;;4944566;28;20050;-77
2023/08/11 04:52:27;;;;;;;50.28;46.22;;;13.40;99.90;;;;;;4930248;29;20110;-77
2023/08/11 04:54:53;;;;;;;51.85;47.17;;;13.50;99.90;;;;;;4939013;29;20045;-76
2023/08/11 04:57:19;;;;;;;41.00;37.80;;;13.50;99.90;;;;;;4934262;29;20459;-76
2023/08/11 04:59:45;;;;;;;45.30;41.38;;;13.50;99.90;;;;;;4932115;29;20047;-76
2023/08/11 05:02:12;;;;;;;44.85;40.95;;;13.60;99.90;;;;;;4954154;28;20583;-76
2023/08/11 05:04:39;;;;;;;42.67;38.95;;;13.60;99.90;;;;;;4945427;28;20526;-77
2023/08/11 05:07:06;;;;;;;39.78;36.47;;;13.60;99.90;;;;;;4951026;28;20618;-76
2023/08/11 05:09:33;;;;;;;61.45;49.20;;;13.70;99.90;;;;;;4976556;28;20043;-77
2023/08/11 05:11:59;;;;;;;43.90;39.78;;;13.80;99.90;;;;;;4948143;28;20038;-76
2023/08/11 05:14:24;;;;;;;44.40;40.50;;;13.80;99.90;;;;;;4957403;28;20494;-77
2023/08/11 05:16:50;;;;;;;43.95;40.30;;;13.90;99.90;;;;;;4944248;28;20054;-77
2023/08/11 05:19:16;;;;;;;40.30;36.97;;;14.00;99.90;;;;;;4951247;28;20030;-77
2023/08/11 05:21:42;;;;;;;44.53;40.67;;;14.00;99.90;;;;;;4961086;28;20043;-77
2023/08/11 05:24:10;;;;;;;38.75;35.65;;;14.10;99.90;;;;;;4957998;28;20045;-76
2023/08/11 05:26:36;;;;;;;45.72;41.72;;;14.10;99.90;;;;;;4940532;29;20043;-76
2023/08/11 05:29:02;;;;;;;37.20;34.15;;;14.20;99.90;;;;;;4941218;29;20043;-77
2023/08/11 05:31:28;;;;;;;39.88;36.35;;;14.30;99.90;;;;;;4935646;29;20050;-77
2023/08/11 05:33:54;;;;;;;43.15;39.47;;;14.30;99.90;;;;;;4963632;28;20477;-76
2023/08/11 05:36:20;;;;;;;28.65;26.30;;;14.40;99.90;;;;;;4946680;29;20089;-76
2023/08/11 05:38:46;;;;;;;34.17;31.25;;;14.50;99.90;;;;;;4941381;29;20035;-77
2023/08/11 05:41:12;;;;;;;33.00;30.35;;;14.50;99.90;;;;;;4936178;29;20036;-76
2023/08/11 05:43:38;;;;;;;32.40;29.75;;;14.60;99.90;;;;;;4938797;29;20414;-77
2023/08/11 05:46:06;;;;;;;34.35;31.42;;;14.60;99.90;;;;;;4950284;29;20050;-77
2023/08/11 05:48:33;;;;;;;26.75;24.65;;;14.70;99.90;;;;;;4929996;29;20050;-76
2023/08/11 05:50:59;;;;;;;33.08;30.50;;;14.80;99.90;;;;;;4956121;28;20525;-77
2023/08/11 05:53:25;;;;;;;31.33;28.60;;;14.80;99.90;;;;;;4957272;29;20043;-77
2023/08/11 05:55:51;;;;;;;28.80;26.48;;;14.90;99.90;;;;;;4941390;28;20437;-78
2023/08/11 05:58:16;;;;;;;28.60;26.48;;;14.90;99.90;;;;;;4947332;28;20035;-77
2023/08/11 06:00:42;;;;;;;38.75;35.33;;;15.00;99.90;;;;;;4969017;28;20572;-77
2023/08/11 06:03:08;;;;;;;31.48;28.95;;;15.10;99.90;;;;;;4942777;28;20050;-77
2023/08/11 06:05:34;;;;;;;33.20;30.40;;;15.20;99.90;;;;;;4963028;28;20090;-77
2023/08/11 06:07:59;;;;;;;27.48;25.15;;;15.30;99.90;;;;;;4952696;28;20050;-77
2023/08/11 06:10:26;;;;;;;30.83;28.25;;;15.30;99.90;;;;;;4962107;28;20528;-78
2023/08/11 06:12:52;;;;;;;27.13;24.88;;;15.40;99.90;;;;;;4964050;28;20059;-77
2023/08/11 06:15:18;;;;;;;31.60;29.00;;;15.50;99.90;;;;;;4943367;29;20043;-77
2023/08/11 06:17:49;;;;;;;25.00;23.00;;;15.60;99.90;;;;;;4943191;29;20054;-77
2023/08/11 06:20:18;;;;;;;32.40;29.95;;;15.60;99.90;;;;;;4939159;28;20039;-77
2023/08/11 06:22:45;;;;;;;24.38;22.27;;;15.70;99.90;;;;;;4946826;29;20046;-77
2023/08/11 06:25:12;;;;;;;31.55;28.95;;;15.80;99.90;;;;;;4950371;28;20039;-77
2023/08/11 06:27:37;;;;;;;24.38;22.38;;;16.00;99.90;;;;;;4958347;29;20047;-77
2023/08/11 06:30:05;;;;;;;30.15;27.75;;;16.00;99.90;;;;;;4959236;28;20125;-77
2023/08/11 06:32:31;;;;;;;23.52;21.70;;;16.20;99.90;;;;;;4934428;29;20082;-77
2023/08/11 06:34:57;;;;;;;28.08;25.48;;;16.20;99.90;;;;;;4953137;28;20478;-76
2023/08/11 06:37:23;;;;;;;23.02;21.10;;;16.30;99.90;;;;;;4957303;28;20490;-76
2023/08/11 06:39:51;;;;;;;22.77;20.92;;;16.40;99.90;;;;;;4937767;29;20165;-76
2023/08/11 06:42:17;;;;;;;31.83;29.23;;;16.50;99.90;;;;;;4938263;29;20599;-75
2023/08/11 06:44:44;;;;;;;22.90;21.00;;;16.60;99.90;;;;;;4952741;29;20118;-77
2023/08/11 06:47:10;;;;;;;20.90;19.25;;;16.60;99.90;;;;;;4952915;29;20051;-76
2023/08/11 06:49:35;;;;;;;21.13;19.23;;;16.80;99.90;;;;;;4941792;28;20050;-77
2023/08/11 06:52:01;;;;;;;15.25;13.88;;;16.90;99.90;;;;;;4962624;28;20043;-77
2023/08/11 06:54:27;;;;;;;20.23;18.42;;;16.90;99.90;;;;;;4943363;29;20049;-76
2023/08/11 06:56:53;;;;;;;19.20;17.42;;;17.10;99.90;;;;;;4939147;29;20122;-77
2023/08/11 06:59:24;;;;;;;18.48;16.90;;;17.10;99.90;;;;;;4938960;29;20487;-76
2023/08/11 07:01:55;;;;;;;16.02;14.65;;;17.20;99.90;;;;;;4938661;28;20043;-77
2023/08/11 07:04:26;;;;;;;13.48;12.18;;;17.30;99.90;;;;;;4939551;29;20494;-76
2023/08/11 07:06:55;;;;;;;18.63;16.95;;;17.40;99.90;;;;;;4938043;29;20541;-77
2023/08/11 07:09:21;;;;;;;17.80;16.02;;;17.50;99.90;;;;;;4957364;28;20209;-77
2023/08/11 07:11:53;;;;;;;16.23;14.77;;;17.60;99.90;;;;;;4950803;28;20343;-76
2023/08/11 07:14:52;;;;;;;;;;;;;;;;;;;;;
2023/08/11 07:17:31;;;;;;;15.98;14.60;;;17.70;99.90;;;;;;4945195;29;20050;-75
2023/08/11 07:20:31;;;;;;;14.07;12.77;;;17.80;99.90;;;;;;4952575;29;20422;-76
2023/08/11 07:23:33;;;;;;;15.27;13.85;;;17.90;99.90;;;;;;4952728;29;20043;-76
2023/08/11 07:26:20;;;;;;;15.85;14.45;;;18.00;99.90;;;;;;4954514;28;20097;-76
2023/08/11 07:28:59;;;;;;;14.55;13.15;;;18.10;99.90;;;;;;4963675;28;20054;-76
2023/08/11 07:31:41;;;;;;;14.45;13.02;;;18.20;99.90;;;;;;4944305;28;20051;-76
2023/08/11 07:34:42;;;;;;;15.13;13.73;;;18.20;99.90;;;;;;4953914;28;20089;-76
2023/08/11 07:37:27;;;;;;;15.18;13.88;;;18.40;99.90;;;;;;4969469;28;20501;-76
2023/08/11 07:40:06;;;;;;;13.38;12.07;;;18.30;99.90;;;;;;4987171;23;20516;-76
2023/08/11 07:42:37;;;;;;;13.20;11.73;;;18.50;99.90;;;;;;4969589;28;20567;-76
2023/08/11 07:45:11;;;;;;;13.57;12.27;;;18.60;99.90;;;;;;4952951;28;20046;-76
2023/08/11 07:47:38;;;;;;;12.00;10.98;;;18.70;99.90;;;;;;4954809;28;20046;-76
2023/08/11 07:50:31;;;;;;;12.60;11.43;;;18.80;99.90;;;;;;4954172;28;20042;-77
2023/08/11 07:59:16;;;;;;;12.15;10.68;;;19.10;99.90;;;;;;4960296;28;20043;-76
2023/08/11 08:02:04;;;;;;;12.43;11.30;;;19.20;99.90;;;;;;4971384;28;20110;-76
2023/08/11 08:04:46;;;;;;;12.40;11.20;;;19.40;99.90;;;;;;4959657;28;20101;-76
2023/08/11 08:07:49;;;;;;;11.48;10.27;;;19.40;99.90;;;;;;4965689;28;20513;-76
2023/08/11 08:10:48;;;;;;;11.18;10.07;;;19.50;99.90;;;;;;4972688;28;20049;-77
2023/08/11 08:13:41;;;;;;;11.05;9.73;;;19.70;99.90;;;;;;4965893;28;20489;-77
2023/08/11 08:17:05;;;;;;;10.48;9.57;;;19.80;99.90;;;;;;4971716;28;20050;-77
2023/08/11 08:20:05;;;;;;;11.88;9.75;;;20.00;99.90;;;;;;4961898;28;20052;-77
2023/08/11 08:22:48;;;;;;;9.50;8.60;;;20.20;99.90;;;;;;4935205;29;20062;-77
2023/08/11 08:25:39;;;;;;;11.68;8.30;;;20.40;99.90;;;;;;4934994;29;20051;-77
2023/08/11 08:29:09;;;;;;;8.77;7.25;;;21.00;99.90;;;;;;4939462;28;20178;-77
2023/08/11 08:31:54;;;;;;;8.32;6.75;;;22.00;99.90;;;;;;4938236;29;20422;-76
2023/08/11 08:34:43;;;;;;;7.95;6.32;;;23.00;99.90;;;;;;4937932;28;20050;-78
2023/08/11 08:37:31;;;;;;;7.97;5.80;;;23.90;99.90;;;;;;4942104;28;20047;-77
2023/08/11 08:40:15;;;;;;;7.13;5.28;;;24.70;99.90;;;;;;4958988;28;20046;-78
2023/08/11 08:42:42;;;;;;;9.27;5.32;;;25.40;99.90;;;;;;4958192;28;20109;-79
2023/08/11 08:45:20;;;;;;;8.73;5.00;;;25.80;99.90;;;;;;4974714;28;20053;-79
2023/08/11 08:47:57;;;;;;;6.38;4.95;;;26.30;99.90;;;;;;4938763;28;20047;-80
2023/08/11 08:50:29;;;;;;;5.95;5.35;;;26.70;99.90;;;;;;4971742;28;20038;-78
2023/08/11 08:53:08;;;;;;;5.93;5.20;;;27.00;99.90;;;;;;4957062;28;20043;-79
2023/08/11 08:55:46;;;;;;;7.13;4.93;;;27.30;99.90;;;;;;4957302;28;20132;-80
2023/08/11 08:58:13;;;;;;;7.47;4.70;;;27.50;99.90;;;;;;4959962;28;20074;-78
2023/08/11 09:00:42;;;;;;;6.10;4.80;;;27.70;99.90;;;;;;4947343;28;20070;-78
2023/08/11 09:03:14;;;;;;;6.22;4.78;;;27.90;99.90;;;;;;4937188;28;20035;-78
2023/08/11 09:05:45;;;;;;;7.60;4.70;;;28.10;99.90;;;;;;4963888;28;20038;-80
2023/08/11 09:08:11;;;;;;;6.55;4.40;;;28.20;99.90;;;;;;4959554;28;20050;-78
2023/08/11 09:10:37;;;;;;;7.07;4.30;;;28.40;99.90;;;;;;4954115;28;20050;-79
2023/08/11 09:13:03;;;;;;;6.25;4.47;;;28.50;99.80;;;;;;4957374;28;20078;-78
2023/08/11 09:15:29;;;;;;;6.95;4.97;;;28.60;99.90;;;;;;4942838;28;20050;-77
2023/08/11 09:17:55;;;;;;;7.15;4.82;;;28.50;99.90;;;;;;4941928;28;20081;-78
2023/08/11 09:20:26;;;;;;;8.50;4.65;;;28.60;97.00;;;;;;4942646;28;20070;-80
2023/08/11 09:22:55;;;;;;;6.18;4.63;;;28.70;99.90;;;;;;4954225;28;20039;-78
2023/08/11 09:25:21;;;;;;;6.93;4.72;;;28.90;99.90;;;;;;4943358;28;20039;-78
2023/08/11 09:27:51;;;;;;;9.00;4.75;;;29.00;99.70;;;;;;4960960;28;20524;-77
2023/08/11 09:30:16;;;;;;;6.78;4.30;;;29.20;99.90;;;;;;4957686;28;20089;-78
2023/08/11 09:32:49;;;;;;;6.35;4.35;;;29.40;92.50;;;;;;4939448;28;20043;-77
2023/08/11 09:35:14;;;;;;;6.00;4.30;;;29.40;98.40;;;;;;4958702;28;20046;-77
2023/08/11 09:37:49;;;;;;;5.03;4.10;;;29.30;98.60;;;;;;4956132;28;20184;-78
2023/08/11 09:40:19;;;;;;;7.60;4.55;;;29.50;99.90;;;;;;4962209;28;20057;-77
2023/08/11 09:42:45;;;;;;;5.68;4.22;;;29.60;92.50;;;;;;4937405;28;20046;-77
2023/08/11 09:45:18;;;;;;;5.15;3.72;;;29.70;88.00;;;;;;4940163;28;20437;-77
2023/08/11 09:47:47;;;;;;;5.35;3.80;;;29.70;91.40;;;;;;4940722;28;20403;-77
2023/08/11 09:50:19;;;;;;;5.75;3.83;;;29.70;85.40;;;;;;4959980;28;20108;-77
2023/08/11 09:52:48;;;;;;;7.47;3.70;;;29.70;86.20;;;;;;4959740;28;20042;-78
2023/08/11 09:55:21;;;;;;;5.10;3.60;;;29.80;96.10;;;;;;4952878;28;20497;-80
2023/08/11 09:57:57;;;;;;;;;;;;;;;;;;;;;
2023/08/11 10:00:26;;;;;;;6.90;3.72;;;30.00;76.00;;;;;;4976585;28;20339;-79
2023/08/11 10:03:05;;;;;;;5.80;3.80;;;30.10;95.50;;;;;;4979456;28;20073;-78
2023/08/11 10:05:48;;;;;;;6.57;4.30;;;30.10;78.20;;;;;;4970455;28;20536;-78
2023/08/11 10:08:22;;;;;;;6.43;3.80;;;30.10;77.10;;;;;;4963413;28;20505;-78
2023/08/11 10:10:50;;;;;;;5.75;3.45;;;30.10;78.20;;;;;;4960629;28;20038;-78
2023/08/11 10:13:28;;;;;;;6.15;3.78;;;30.10;80.10;;;;;;4982559;28;20073;-79
2023/08/11 10:15:57;;;;;;;4.63;3.60;;;30.10;76.20;;;;;;4966184;28;20476;-78
2023/08/11 10:18:24;;;;;;;5.53;3.63;;;30.10;74.10;;;;;;4965308;28;20568;-79
2023/08/11 10:20:51;;;;;;;6.10;3.70;;;30.10;75.40;;;;;;4961396;28;20574;-78
2023/08/11 10:23:20;;;;;;;5.22;3.47;;;30.10;75.10;;;;;;4962089;28;20050;-79
2023/08/11 10:25:49;;;;;;;5.90;3.25;;;30.10;74.30;;;;;;4955866;28;20038;-79
2023/08/11 10:28:16;;;;;;;5.15;2.92;;;30.20;78.90;;;;;;4943757;28;20050;-79
2023/08/11 10:30:42;;;;;;;4.00;2.85;;;30.40;75.70;;;;;;4957054;28;20061;-78
2023/08/11 10:33:08;;;;;;;4.80;3.17;;;30.40;74.60;;;;;;4957267;28;20038;-78
2023/08/11 10:35:47;;;;;;;6.28;2.85;;;30.50;71.50;;;;;;4958917;28;20051;-79
2023/08/11 10:38:29;;;;;;;4.50;3.00;;;30.50;71.00;;;;;;4942386;28;20048;-79
2023/08/11 10:41:05;;;;;;;5.13;3.03;;;30.50;71.20;;;;;;4947142;28;20035;-78
2023/08/11 10:43:35;;;;;;;5.88;3.20;;;30.60;71.60;;;;;;4974416;28;20042;-79
2023/08/11 10:46:21;;;;;;;4.63;3.05;;;30.80;72.00;;;;;;4947103;28;20042;-78
2023/08/11 10:48:47;;;;;;;4.95;3.20;;;30.80;68.60;;;;;;4940797;28;20051;-78
2023/08/11 10:51:24;;;;;;;8.02;3.65;;;30.80;69.70;;;;;;4952118;28;20035;-78
2023/08/11 10:53:50;;;;;;;6.78;3.70;;;30.90;69.10;;;;;;4972969;28;20046;-78
2023/08/11 10:56:15;;;;;;;4.97;2.72;;;30.90;70.00;;;;;;4964049;28;20497;-78
2023/08/11 10:58:47;;;;;;;6.30;3.22;;;30.90;68.40;;;;;;4957321;28;20501;-80
2023/08/11 11:01:13;;;;;;;5.07;3.00;;;31.10;72.00;;;;;;4960745;28;20050;-80
2023/08/11 11:03:42;;;;;;;4.70;3.20;;;31.30;71.10;;;;;;4981962;28;20034;-80
2023/08/11 11:06:08;;;;;;;7.22;3.40;;;31.30;67.10;;;;;;4958596;28;20585;-79
2023/08/11 11:08:34;;;;;;;5.15;3.30;;;31.30;68.70;;;;;;4957659;28;20089;-79
2023/08/11 11:11:00;;;;;;;6.03;3.17;;;31.40;68.60;;;;;;4942617;28;20026;-79
2023/08/11 11:13:25;;;;;;;4.70;2.88;;;31.40;67.90;;;;;;4970270;28;20057;-78
2023/08/11 11:15:51;;;;;;;4.78;3.20;;;31.60;66.50;;;;;;4976795;28;20129;-79
2023/08/11 11:18:17;;;;;;;10.07;3.50;;;31.60;65.40;;;;;;4976994;28;20046;-79
2023/08/11 11:20:47;;;;;;;10.48;3.22;;;31.60;69.20;;;;;;4964200;28;20168;-79
2023/08/11 11:23:13;;;;;;;4.05;2.97;;;31.70;70.40;;;;;;4941673;28;20097;-79
2023/08/11 11:25:38;;;;;;;3.13;2.83;;;31.60;66.60;;;;;;4957001;28;20039;-80
2023/08/11 11:28:04;;;;;;;4.43;3.13;;;31.70;66.60;;;;;;4956509;28;20517;-80
2023/08/11 11:30:30;;;;;;;4.68;2.90;;;31.70;65.30;;;;;;4941777;28;20552;-80
2023/08/11 11:32:58;;;;;;;6.10;3.00;;;31.70;66.90;;;;;;4935578;28;20067;-80
2023/08/11 11:35:24;;;;;;;4.35;3.05;;;31.60;66.30;;;;;;4976437;28;20042;-80
2023/08/11 11:37:51;;;;;;;4.60;3.00;;;31.60;66.50;;;;;;4960136;28;20048;-80
2023/08/11 11:40:17;;;;;;;6.15;3.00;;;31.70;70.00;;;;;;4960390;28;20086;-80
2023/08/11 11:42:43;;;;;;;6.43;2.88;;;31.70;68.50;;;;;;4976393;28;20093;-80
2023/08/11 11:45:10;;;;;;;4.75;3.00;;;31.70;67.90;;;;;;4966132;28;20035;-80
2023/08/11 11:47:36;;;;;;;4.82;3.00;;;31.70;65.70;;;;;;4970832;28;20058;-80
2023/08/11 11:50:09;;;;;;;5.32;2.97;;;31.70;67.20;;;;;;4976054;28;20500;-80
2023/08/11 11:52:36;;;;;;;3.88;3.13;;;31.70;67.80;;;;;;4976588;28;20501;-80
2023/08/11 11:55:02;;;;;;;5.22;3.25;;;31.70;70.30;;;;;;4960359;28;20043;-80
2023/08/11 11:57:28;;;;;;;4.95;3.67;;;31.80;68.60;;;;;;4959805;28;20404;-80
2023/08/11 11:59:54;;;;;;;6.68;3.47;;;31.90;65.60;;;;;;4962090;28;20031;-80
2023/08/11 12:02:20;;;;;;;6.75;3.70;;;31.70;66.30;;;;;;4980441;28;20037;-80
2023/08/11 12:04:49;;;;;;;5.55;3.10;;;31.70;67.80;;;;;;4979716;28;20065;-80
2023/08/11 12:07:31;;;;;;;4.68;3.30;;;31.70;68.00;;;;;;4979518;28;20054;-80
2023/08/11 12:09:58;;;;;;;4.18;3.40;;;31.50;65.80;;;;;;4980157;28;20054;-80
2023/08/11 12:12:28;;;;;;;4.13;3.30;;;31.00;66.90;;;;;;4965125;28;20429;-79
2023/08/11 12:15:00;;;;;;;5.35;4.03;;;30.80;68.70;;;;;;4956932;28;20117;-78
2023/08/11 12:17:29;;;;;;;4.97;3.53;;;30.80;69.10;;;;;;4937448;28;20053;-79
2023/08/11 12:19:55;;;;;;;4.65;3.30;;;31.10;68.20;;;;;;4945034;28;20053;-80
2023/08/11 12:22:22;;;;;;;4.72;3.20;;;31.40;72.80;;;;;;4962877;28;20043;-80
2023/08/11 12:24:48;;;;;;;6.43;3.75;;;31.60;68.10;;;;;;4945547;28;20042;-80
2023/08/11 12:27:14;;;;;;;5.25;3.47;;;31.90;69.70;;;;;;4981337;28;20039;-80
2023/08/11 12:29:42;;;;;;;3.95;3.45;;;32.30;68.20;;;;;;4981080;28;20085;-80
2023/08/11 12:32:08;;;;;;;5.05;3.78;;;32.50;67.30;;;;;;4964702;28;20567;-80
2023/08/11 12:34:33;;;;;;;4.57;3.60;;;32.70;67.20;;;;;;4982235;28;20042;-81
2023/08/11 12:36:59;;;;;;;4.40;3.30;;;32.90;68.20;;;;;;4966067;28;20073;-80
2023/08/11 12:39:25;;;;;;;3.55;2.88;;;33.20;68.90;;;;;;4954246;28;20426;-81
2023/08/11 12:41:53;;;;;;;6.18;3.60;;;33.50;66.70;;;;;;4958436;28;20485;-80
2023/08/11 12:44:19;;;;;;;3.92;2.92;;;33.60;63.80;;;;;;4981799;28;20497;-80
2023/08/11 12:46:45;;;;;;;4.45;3.35;;;33.60;63.60;;;;;;4981550;28;20045;-80
2023/08/11 12:49:11;;;;;;;4.47;3.45;;;33.70;63.80;;;;;;4990247;28;20077;-80
2023/08/11 12:51:39;;;;;;;5.32;3.05;;;33.70;62.90;;;;;;4984944;28;20109;-80
2023/08/11 12:54:05;;;;;;;3.60;3.00;;;33.70;63.60;;;;;;4966767;28;20043;-80
2023/08/11 12:56:31;;;;;;;4.63;3.05;;;33.60;62.20;;;;;;4983426;28;20057;-80